SWA2531 KAUS-KOKC
Flight info
| Callsign | SWA2531 |
|---|---|
| Flight time | 0h 54m |
| Altitude | 34000 |
| Route | ELOEL3 KLNGR MQP TSDEL TSDEL3 |
| Aircraft | B738/M-SDE2E3FGHIRWXY/LB1 |
Departure
| Time | 2026-04-20 19:07 |
|---|---|
| Airport | Austin Bergstrom International Airport (KAUS) |
Arrival
| Time | 2026-04-20 20:01 |
|---|---|
| Airport | OKC Will Rogers World Airport (KOKC) |
| Time | Latitude | Longitude | Altitude | Speed | Heading |
|---|---|---|---|---|---|
| 2026-04-20 18:37 | 30.20132 | -97.66720 | 526 ft | 0 kts | 8° |
| 2026-04-20 18:57 | 30.20127 | -97.66720 | 526 ft | 2 kts | 8° |
| 2026-04-20 18:57 | 30.20115 | -97.66722 | 526 ft | 3 kts | 8° |
| 2026-04-20 18:57 | 30.20089 | -97.66727 | 526 ft | 2 kts | 8° |
| 2026-04-20 18:58 | 30.20084 | -97.66728 | 526 ft | 0 kts | 8° |
| 2026-04-20 19:00 | 30.20090 | -97.66719 | 526 ft | 3 kts | 61° |
| 2026-04-20 19:01 | 30.20054 | -97.66694 | 529 ft | 10 kts | 173° |
| 2026-04-20 19:01 | 30.19964 | -97.66689 | 526 ft | 18 kts | 178° |
| 2026-04-20 19:01 | 30.19843 | -97.66657 | 526 ft | 18 kts | 120° |
| 2026-04-20 19:01 | 30.19836 | -97.66497 | 526 ft | 22 kts | 89° |
| 2026-04-20 19:02 | 30.19840 | -97.66303 | 526 ft | 26 kts | 89° |
| 2026-04-20 19:02 | 30.19844 | -97.66093 | 526 ft | 26 kts | 88° |
| 2026-04-20 19:02 | 30.19819 | -97.65913 | 526 ft | 21 kts | 154° |
| 2026-04-20 19:02 | 30.19650 | -97.65898 | 526 ft | 27 kts | 178° |
| 2026-04-20 19:03 | 30.19463 | -97.65893 | 527 ft | 26 kts | 178° |
| 2026-04-20 19:03 | 30.19291 | -97.65888 | 527 ft | 24 kts | 178° |
| 2026-04-20 19:03 | 30.19113 | -97.65882 | 527 ft | 27 kts | 178° |
| 2026-04-20 19:03 | 30.18920 | -97.65879 | 527 ft | 28 kts | 179° |
| 2026-04-20 19:04 | 30.18721 | -97.65876 | 526 ft | 28 kts | 178° |
| 2026-04-20 19:04 | 30.18526 | -97.65869 | 526 ft | 30 kts | 179° |
| 2026-04-20 19:04 | 30.18315 | -97.65865 | 526 ft | 30 kts | 179° |
| 2026-04-20 19:04 | 30.18110 | -97.65858 | 526 ft | 28 kts | 179° |
| 2026-04-20 19:05 | 30.17966 | -97.65855 | 526 ft | 9 kts | 178° |
| 2026-04-20 19:05 | 30.17924 | -97.65836 | 527 ft | 6 kts | 127° |
| 2026-04-20 19:05 | 30.17919 | -97.65770 | 527 ft | 13 kts | 85° |
| 2026-04-20 19:05 | 30.17949 | -97.65726 | 526 ft | 7 kts | 1° |
| 2026-04-20 19:06 | 30.17967 | -97.65727 | 526 ft | 2 kts | 358° |
| 2026-04-20 19:06 | 30.18068 | -97.65730 | 524 ft | 43 kts | 358° |
| 2026-04-20 19:06 | 30.18620 | -97.65744 | 526 ft | 113 kts | 358° |
| 2026-04-20 19:06 | 30.19604 | -97.65770 | 590 ft | 163 kts | 358° |
| 2026-04-20 19:07 | 30.20760 | -97.65802 | 1288 ft | 172 kts | 0° |
| 2026-04-20 19:07 | 30.22006 | -97.65828 | 1882 ft | 187 kts | 6° |
| 2026-04-20 19:07 | 30.23406 | -97.65744 | 2094 ft | 213 kts | 7° |
| 2026-04-20 19:07 | 30.24954 | -97.65666 | 2378 ft | 228 kts | 6° |
| 2026-04-20 19:08 | 30.26574 | -97.65586 | 2887 ft | 237 kts | 7° |
| 2026-04-20 19:08 | 30.29848 | -97.66215 | 4045 ft | 259 kts | 340° |
| 2026-04-20 19:08 | 30.31591 | -97.67019 | 4412 ft | 275 kts | 339° |
| 2026-04-20 19:09 | 30.33380 | -97.67854 | 5113 ft | 278 kts | 339° |
| 2026-04-20 19:09 | 30.35157 | -97.68675 | 5839 ft | 281 kts | 340° |
| 2026-04-20 19:09 | 30.36991 | -97.69510 | 6664 ft | 285 kts | 340° |
| 2026-04-20 19:09 | 30.38852 | -97.70347 | 7528 ft | 288 kts | 339° |
| 2026-04-20 19:10 | 30.40735 | -97.71189 | 8399 ft | 292 kts | 338° |
| 2026-04-20 19:10 | 30.42643 | -97.72037 | 9318 ft | 294 kts | 337° |
| 2026-04-20 19:10 | 30.44555 | -97.72884 | 10237 ft | 296 kts | 336° |
| 2026-04-20 19:10 | 30.46540 | -97.73765 | 10641 ft | 317 kts | 336° |
| 2026-04-20 19:11 | 30.48688 | -97.74719 | 10837 ft | 343 kts | 336° |
| 2026-04-20 19:11 | 30.50988 | -97.75737 | 11219 ft | 361 kts | 336° |
| 2026-04-20 19:11 | 30.53359 | -97.76782 | 11891 ft | 366 kts | 336° |
| 2026-04-20 19:11 | 30.55750 | -97.77834 | 12686 ft | 369 kts | 336° |
| 2026-04-20 19:12 | 30.58157 | -97.78894 | 13460 ft | 372 kts | 336° |
| 2026-04-20 19:12 | 30.60590 | -97.79966 | 14186 ft | 376 kts | 336° |
| 2026-04-20 19:12 | 30.63041 | -97.81049 | 14845 ft | 379 kts | 336° |
| 2026-04-20 19:12 | 30.65512 | -97.82141 | 15526 ft | 381 kts | 336° |
| 2026-04-20 19:13 | 30.68001 | -97.83242 | 16191 ft | 384 kts | 336° |
| 2026-04-20 19:13 | 30.70511 | -97.84353 | 16860 ft | 387 kts | 336° |
| 2026-04-20 19:13 | 30.73040 | -97.85473 | 17482 ft | 391 kts | 336° |
| 2026-04-20 19:13 | 30.75607 | -97.86557 | 18116 ft | 395 kts | 338° |
| 2026-04-20 19:14 | 30.78234 | -97.87545 | 18736 ft | 398 kts | 339° |
| 2026-04-20 19:14 | 30.80891 | -97.88505 | 19264 ft | 402 kts | 339° |
| 2026-04-20 19:14 | 30.83571 | -97.89474 | 19784 ft | 405 kts | 339° |
| 2026-04-20 19:14 | 30.86267 | -97.90465 | 20324 ft | 408 kts | 339° |
| 2026-04-20 19:15 | 30.88978 | -97.91473 | 20850 ft | 411 kts | 338° |
| 2026-04-20 19:15 | 30.91713 | -97.92493 | 21376 ft | 414 kts | 338° |
| 2026-04-20 19:15 | 30.94462 | -97.93515 | 21891 ft | 417 kts | 338° |
| 2026-04-20 19:15 | 30.97238 | -97.94544 | 22405 ft | 420 kts | 338° |
| 2026-04-20 19:16 | 31.00032 | -97.95580 | 22883 ft | 423 kts | 338° |
| 2026-04-20 19:16 | 31.02851 | -97.96626 | 23357 ft | 426 kts | 338° |
| 2026-04-20 19:16 | 31.05684 | -97.97678 | 23837 ft | 429 kts | 338° |
| 2026-04-20 19:16 | 31.08537 | -97.98738 | 24258 ft | 432 kts | 338° |
| 2026-04-20 19:17 | 31.11406 | -97.99805 | 24669 ft | 434 kts | 338° |
| 2026-04-20 19:17 | 31.14288 | -98.00878 | 25083 ft | 436 kts | 338° |
| 2026-04-20 19:17 | 31.17184 | -98.01956 | 25502 ft | 438 kts | 338° |
| 2026-04-20 19:17 | 31.20092 | -98.03029 | 25907 ft | 440 kts | 340° |
| 2026-04-20 19:18 | 31.23118 | -98.03771 | 26282 ft | 448 kts | 348° |
| 2026-04-20 19:18 | 31.26214 | -98.03943 | 26654 ft | 455 kts | 356° |
| 2026-04-20 19:18 | 31.29432 | -98.03859 | 27029 ft | 458 kts | 357° |
| 2026-04-20 19:18 | 31.32583 | -98.03733 | 27357 ft | 461 kts | 357° |
| 2026-04-20 19:19 | 31.35797 | -98.03599 | 27727 ft | 464 kts | 357° |
| 2026-04-20 19:19 | 31.39029 | -98.03473 | 28136 ft | 465 kts | 357° |
| 2026-04-20 19:19 | 31.42269 | -98.03361 | 28469 ft | 467 kts | 357° |
| 2026-04-20 19:19 | 31.45529 | -98.03259 | 28780 ft | 470 kts | 356° |
| 2026-04-20 19:20 | 31.48804 | -98.03165 | 29086 ft | 472 kts | 356° |
| 2026-04-20 19:20 | 31.52101 | -98.03074 | 29393 ft | 474 kts | 356° |
| 2026-04-20 19:20 | 31.55404 | -98.02986 | 29729 ft | 476 kts | 356° |
| 2026-04-20 19:20 | 31.58713 | -98.02896 | 30181 ft | 474 kts | 356° |
| 2026-04-20 19:21 | 31.62005 | -98.02805 | 30646 ft | 472 kts | 356° |
| 2026-04-20 19:21 | 31.65281 | -98.02715 | 31044 ft | 470 kts | 356° |
| 2026-04-20 19:21 | 31.68552 | -98.02625 | 31368 ft | 471 kts | 356° |
| 2026-04-20 19:21 | 31.71826 | -98.02536 | 31690 ft | 471 kts | 357° |
| 2026-04-20 19:22 | 31.75100 | -98.02447 | 32044 ft | 470 kts | 357° |
| 2026-04-20 19:22 | 31.78371 | -98.02357 | 32419 ft | 469 kts | 357° |
| 2026-04-20 19:22 | 31.81636 | -98.02267 | 32759 ft | 469 kts | 357° |
| 2026-04-20 19:22 | 31.84895 | -98.02178 | 33078 ft | 469 kts | 357° |
| 2026-04-20 19:23 | 31.88161 | -98.02088 | 33405 ft | 469 kts | 356° |
| 2026-04-20 19:23 | 31.91422 | -98.01999 | 33747 ft | 469 kts | 357° |
| 2026-04-20 19:23 | 31.94681 | -98.01909 | 34094 ft | 468 kts | 357° |
| 2026-04-20 19:23 | 31.97941 | -98.01819 | 34348 ft | 469 kts | 356° |
| 2026-04-20 19:24 | 32.01224 | -98.01731 | 34327 ft | 474 kts | 356° |
| 2026-04-20 19:24 | 32.07819 | -98.01550 | 34333 ft | 473 kts | 356° |
| 2026-04-20 19:25 | 32.14354 | -98.01365 | 34330 ft | 468 kts | 356° |
| 2026-04-20 19:25 | 32.20870 | -98.01185 | 34345 ft | 469 kts | 356° |
| 2026-04-20 19:26 | 32.27393 | -98.01006 | 34337 ft | 469 kts | 356° |
| 2026-04-20 19:26 | 32.33928 | -98.00825 | 34337 ft | 470 kts | 356° |
| 2026-04-20 19:27 | 32.40471 | -98.00642 | 34304 ft | 471 kts | 356° |
| 2026-04-20 19:27 | 32.47033 | -98.00460 | 34301 ft | 472 kts | 356° |
| 2026-04-20 19:28 | 32.53593 | -98.00277 | 34301 ft | 472 kts | 356° |
| 2026-04-20 19:28 | 32.60161 | -98.00093 | 34314 ft | 472 kts | 356° |
| 2026-04-20 19:29 | 32.66725 | -97.99910 | 34316 ft | 472 kts | 356° |
| 2026-04-20 19:29 | 32.73295 | -97.99556 | 34308 ft | 476 kts | 4° |
| 2026-04-20 19:30 | 32.79768 | -97.97785 | 34316 ft | 479 kts | 11° |
| 2026-04-20 19:30 | 32.86208 | -97.95746 | 34305 ft | 478 kts | 11° |
| 2026-04-20 19:31 | 32.92601 | -97.93753 | 34305 ft | 477 kts | 10° |
| 2026-04-20 19:31 | 32.99029 | -97.91796 | 34307 ft | 477 kts | 10° |
| 2026-04-20 19:32 | 33.05456 | -97.89858 | 34323 ft | 476 kts | 10° |
| 2026-04-20 19:32 | 33.11877 | -97.87921 | 34325 ft | 476 kts | 10° |
| 2026-04-20 19:33 | 33.18295 | -97.85979 | 34320 ft | 476 kts | 10° |
| 2026-04-20 19:33 | 33.24726 | -97.84029 | 34325 ft | 477 kts | 10° |
| 2026-04-20 19:34 | 33.31164 | -97.82073 | 34324 ft | 478 kts | 10° |
| 2026-04-20 19:34 | 33.37615 | -97.80110 | 34319 ft | 479 kts | 10° |
| 2026-04-20 19:35 | 33.44089 | -97.78138 | 34311 ft | 481 kts | 10° |
| 2026-04-20 19:35 | 33.50580 | -97.76157 | 34312 ft | 482 kts | 10° |
| 2026-04-20 19:36 | 33.57100 | -97.74164 | 34310 ft | 484 kts | 10° |
| 2026-04-20 19:36 | 33.63634 | -97.72165 | 34052 ft | 489 kts | 10° |
| 2026-04-20 19:36 | 33.66952 | -97.71150 | 33391 ft | 491 kts | 10° |
| 2026-04-20 19:37 | 33.70250 | -97.70137 | 32719 ft | 489 kts | 10° |
| 2026-04-20 19:37 | 33.73545 | -97.69124 | 32005 ft | 489 kts | 9° |
| 2026-04-20 19:37 | 33.76837 | -97.68111 | 31411 ft | 486 kts | 9° |
| 2026-04-20 19:37 | 33.80096 | -97.67106 | 30928 ft | 481 kts | 9° |
| 2026-04-20 19:38 | 33.83319 | -97.66112 | 30424 ft | 476 kts | 9° |
| 2026-04-20 19:38 | 33.86512 | -97.65127 | 29850 ft | 472 kts | 9° |
| 2026-04-20 19:38 | 33.89675 | -97.64151 | 29311 ft | 467 kts | 9° |
| 2026-04-20 19:38 | 33.92807 | -97.63185 | 28804 ft | 461 kts | 9° |
| 2026-04-20 19:39 | 33.95898 | -97.62231 | 28280 ft | 457 kts | 9° |
| 2026-04-20 19:39 | 33.98959 | -97.61285 | 27775 ft | 452 kts | 9° |
| 2026-04-20 19:39 | 34.01992 | -97.60348 | 27267 ft | 448 kts | 9° |
| 2026-04-20 19:39 | 34.04999 | -97.59419 | 26764 ft | 444 kts | 9° |
| 2026-04-20 19:40 | 34.07980 | -97.58497 | 26273 ft | 440 kts | 9° |
| 2026-04-20 19:40 | 34.10932 | -97.57583 | 25791 ft | 437 kts | 9° |
| 2026-04-20 19:40 | 34.13867 | -97.56674 | 25304 ft | 433 kts | 10° |
| 2026-04-20 19:40 | 34.16775 | -97.55773 | 24822 ft | 430 kts | 10° |
| 2026-04-20 19:41 | 34.19669 | -97.54875 | 24341 ft | 427 kts | 10° |
| 2026-04-20 19:41 | 34.22540 | -97.53983 | 23859 ft | 425 kts | 11° |
| 2026-04-20 19:41 | 34.25358 | -97.53108 | 23299 ft | 423 kts | 11° |
| 2026-04-20 19:41 | 34.28193 | -97.52227 | 22781 ft | 419 kts | 11° |
| 2026-04-20 19:42 | 34.31039 | -97.51341 | 22283 ft | 415 kts | 11° |
| 2026-04-20 19:42 | 34.33787 | -97.50485 | 21821 ft | 411 kts | 12° |
| 2026-04-20 19:42 | 34.36545 | -97.49624 | 21343 ft | 408 kts | 12° |
| 2026-04-20 19:42 | 34.39287 | -97.48770 | 20872 ft | 405 kts | 12° |
| 2026-04-20 19:43 | 34.42004 | -97.47921 | 20404 ft | 402 kts | 12° |
| 2026-04-20 19:43 | 34.44701 | -97.47079 | 19945 ft | 400 kts | 12° |
| 2026-04-20 19:43 | 34.47336 | -97.46256 | 19499 ft | 397 kts | 12° |
| 2026-04-20 19:43 | 34.50006 | -97.45421 | 19045 ft | 395 kts | 12° |
| 2026-04-20 19:44 | 34.52662 | -97.44590 | 18588 ft | 393 kts | 12° |
| 2026-04-20 19:44 | 34.55307 | -97.43761 | 18066 ft | 391 kts | 12° |
| 2026-04-20 19:44 | 34.57926 | -97.42940 | 17570 ft | 385 kts | 12° |
| 2026-04-20 19:44 | 34.60482 | -97.42137 | 17108 ft | 373 kts | 12° |
| 2026-04-20 19:45 | 34.62974 | -97.41354 | 16475 ft | 368 kts | 12° |
| 2026-04-20 19:45 | 34.65439 | -97.40581 | 16033 ft | 364 kts | 13° |
| 2026-04-20 19:45 | 34.67894 | -97.39810 | 15591 ft | 364 kts | 13° |
| 2026-04-20 19:45 | 34.70345 | -97.39040 | 15154 ft | 364 kts | 13° |
| 2026-04-20 19:46 | 34.72797 | -97.38270 | 14715 ft | 364 kts | 13° |
| 2026-04-20 19:46 | 34.75246 | -97.37499 | 14285 ft | 364 kts | 13° |
| 2026-04-20 19:46 | 34.77698 | -97.36727 | 13783 ft | 364 kts | 13° |
| 2026-04-20 19:46 | 34.80145 | -97.35956 | 13325 ft | 363 kts | 13° |
| 2026-04-20 19:47 | 34.82562 | -97.35193 | 13163 ft | 354 kts | 13° |
| 2026-04-20 19:47 | 34.84916 | -97.34451 | 12982 ft | 346 kts | 13° |
| 2026-04-20 19:47 | 34.87216 | -97.33731 | 12837 ft | 337 kts | 11° |
| 2026-04-20 19:47 | 34.89504 | -97.33617 | 12660 ft | 326 kts | 349° |
| 2026-04-20 19:48 | 34.90938 | -97.34087 | 12489 ft | 319 kts | 335° |
| 2026-04-20 19:48 | 34.93436 | -97.35784 | 12101 ft | 305 kts | 326° |
| 2026-04-20 19:48 | 34.95217 | -97.37174 | 11787 ft | 304 kts | 324° |
| 2026-04-20 19:48 | 34.96992 | -97.38573 | 11454 ft | 305 kts | 325° |
| 2026-04-20 19:49 | 34.98780 | -97.39971 | 11122 ft | 306 kts | 325° |
| 2026-04-20 19:49 | 35.00581 | -97.41363 | 10793 ft | 307 kts | 325° |
| 2026-04-20 19:49 | 35.01806 | -97.42302 | 10576 ft | 308 kts | 325° |
| 2026-04-20 19:49 | 35.04214 | -97.44140 | 10212 ft | 306 kts | 325° |
| 2026-04-20 19:50 | 35.06008 | -97.45509 | 10047 ft | 301 kts | 325° |
| 2026-04-20 19:50 | 35.07216 | -97.46331 | 9911 ft | 301 kts | 335° |
| 2026-04-20 19:50 | 35.09233 | -97.46869 | 9920 ft | 295 kts | 353° |
| 2026-04-20 19:50 | 35.11281 | -97.46994 | 9627 ft | 296 kts | 355° |
| 2026-04-20 19:51 | 35.13319 | -97.47082 | 9304 ft | 292 kts | 355° |
| 2026-04-20 19:51 | 35.15352 | -97.47189 | 8820 ft | 294 kts | 354° |
| 2026-04-20 19:51 | 35.17401 | -97.47312 | 8351 ft | 296 kts | 355° |
| 2026-04-20 19:51 | 35.19466 | -97.47439 | 7855 ft | 299 kts | 354° |
| 2026-04-20 19:52 | 35.21529 | -97.47570 | 7602 ft | 292 kts | 354° |
| 2026-04-20 19:52 | 35.23528 | -97.47699 | 7420 ft | 283 kts | 354° |
| 2026-04-20 19:52 | 35.25482 | -97.47823 | 7301 ft | 279 kts | 354° |
| 2026-04-20 19:52 | 35.27401 | -97.47946 | 7164 ft | 274 kts | 354° |
| 2026-04-20 19:53 | 35.29281 | -97.48066 | 7035 ft | 268 kts | 354° |
| 2026-04-20 19:53 | 35.31143 | -97.48184 | 6764 ft | 269 kts | 354° |
| 2026-04-20 19:53 | 35.33006 | -97.48308 | 6366 ft | 268 kts | 354° |
| 2026-04-20 19:53 | 35.34865 | -97.48424 | 5989 ft | 266 kts | 355° |
| 2026-04-20 19:54 | 35.36702 | -97.48558 | 5617 ft | 264 kts | 355° |
| 2026-04-20 19:54 | 35.38536 | -97.48609 | 5249 ft | 263 kts | 358° |
| 2026-04-20 19:54 | 35.40368 | -97.48604 | 4881 ft | 263 kts | 359° |
| 2026-04-20 19:54 | 35.42192 | -97.48596 | 4532 ft | 260 kts | 359° |
| 2026-04-20 19:55 | 35.43980 | -97.48596 | 4160 ft | 254 kts | 359° |
| 2026-04-20 19:55 | 35.45733 | -97.48602 | 3781 ft | 250 kts | 359° |
| 2026-04-20 19:55 | 35.47456 | -97.48609 | 3449 ft | 246 kts | 359° |
| 2026-04-20 19:55 | 35.49163 | -97.48607 | 3068 ft | 244 kts | 359° |
| 2026-04-20 19:56 | 35.50774 | -97.48898 | 2981 ft | 225 kts | 334° |
| 2026-04-20 19:56 | 35.51848 | -97.50044 | 2946 ft | 189 kts | 285° |
| 2026-04-20 19:56 | 35.51934 | -97.51498 | 2998 ft | 169 kts | 252° |
| 2026-04-20 19:56 | 35.51790 | -97.52524 | 3012 ft | 173 kts | 253° |
| 2026-04-20 19:57 | 35.51599 | -97.53977 | 2990 ft | 172 kts | 253° |
| 2026-04-20 19:57 | 35.51400 | -97.55404 | 2995 ft | 164 kts | 253° |
| 2026-04-20 19:57 | 35.51218 | -97.56763 | 3003 ft | 159 kts | 253° |
| 2026-04-20 19:57 | 35.50881 | -97.57946 | 2977 ft | 144 kts | 218° |
| 2026-04-20 19:58 | 35.50022 | -97.58610 | 3046 ft | 148 kts | 209° |
| 2026-04-20 19:58 | 35.49137 | -97.59116 | 2925 ft | 139 kts | 186° |
| 2026-04-20 19:58 | 35.48178 | -97.59074 | 2835 ft | 140 kts | 177° |
| 2026-04-20 19:58 | 35.47170 | -97.59016 | 2630 ft | 148 kts | 177° |
| 2026-04-20 19:59 | 35.46145 | -97.58961 | 2466 ft | 146 kts | 178° |
| 2026-04-20 19:59 | 35.45128 | -97.58917 | 2283 ft | 148 kts | 180° |
| 2026-04-20 19:59 | 35.44102 | -97.58921 | 2022 ft | 146 kts | 180° |
| 2026-04-20 19:59 | 35.43087 | -97.58912 | 1813 ft | 146 kts | 179° |
| 2026-04-20 20:00 | 35.42059 | -97.58907 | 1638 ft | 150 kts | 178° |
| 2026-04-20 20:00 | 35.40998 | -97.58898 | 1411 ft | 151 kts | 181° |
| 2026-04-20 20:00 | 35.39976 | -97.58896 | 1292 ft | 138 kts | 180° |
| 2026-04-20 20:00 | 35.39213 | -97.58894 | 1293 ft | 67 kts | 179° |
| 2026-04-20 20:01 | 35.38908 | -97.58894 | 1293 ft | 20 kts | 180° |
| 2026-04-20 20:01 | 35.38812 | -97.58948 | 1292 ft | 15 kts | 236° |
| 2026-04-20 20:01 | 35.38817 | -97.59037 | 1291 ft | 6 kts | 322° |
| 2026-04-20 20:01 | 35.38862 | -97.59058 | 1291 ft | 8 kts | 352° |
| 2026-04-20 20:02 | 35.38969 | -97.59063 | 1293 ft | 23 kts | 1° |
| 2026-04-20 20:02 | 35.39156 | -97.59062 | 1290 ft | 21 kts | 360° |
| 2026-04-20 20:02 | 35.39216 | -97.59160 | 1292 ft | 18 kts | 271° |
| 2026-04-20 20:02 | 35.39216 | -97.59328 | 1294 ft | 20 kts | 268° |
| 2026-04-20 20:03 | 35.39219 | -97.59491 | 1294 ft | 16 kts | 283° |
| 2026-04-20 20:03 | 35.39314 | -97.59532 | 1297 ft | 16 kts | 0° |
| 2026-04-20 20:03 | 35.39370 | -97.59560 | 1297 ft | 0 kts | 299° |
| 2026-04-20 20:03 | 35.39382 | -97.59603 | 1297 ft | 12 kts | 278° |
| 2026-04-20 20:04 | 35.39393 | -97.59713 | 1296 ft | 11 kts | 306° |
| 2026-04-20 20:04 | 35.39452 | -97.59705 | 1296 ft | 4 kts | 34° |
| 2026-04-20 20:04 | 35.39458 | -97.59700 | 1296 ft | 0 kts | 34° |